createdAt,value
2023-04-21T00:00:47.783Z,102168.94
2023-04-21T00:03:15.859Z,102164.56
2023-04-21T00:05:44.149Z,102166.31
2023-04-21T00:08:12.101Z,102166.31
2023-04-21T00:10:41.426Z,102159.31
2023-04-21T00:13:09.426Z,102152.31
2023-04-21T00:15:37.490Z,102166.34
2023-04-21T00:18:06.287Z,102153.22
2023-04-21T00:20:34.266Z,102158.50
2023-04-21T00:23:02.238Z,102151.47
2023-04-21T00:25:30.268Z,102144.38
2023-04-21T00:27:59.750Z,102151.38
2023-04-21T00:30:30.385Z,102146.06
2023-04-21T00:32:58.439Z,102145.19
2023-04-21T00:35:26.476Z,102132.03
2023-04-21T00:37:54.401Z,102135.59
2023-04-21T00:40:22.456Z,102140.91
2023-04-21T00:42:50.381Z,102139.13
2023-04-21T00:45:19.732Z,102132.13
2023-04-21T00:47:47.696Z,102129.50
2023-04-21T00:50:15.718Z,102126.88
2023-04-21T00:52:43.882Z,102126.88
2023-04-21T00:55:11.846Z,102129.50
2023-04-21T00:57:39.753Z,102132.94
2023-04-21T01:00:10.326Z,102129.50
2023-04-21T01:02:40.619Z,102125.16
2023-04-21T01:05:10.023Z,102124.25
2023-04-21T01:07:38.042Z,102121.69
2023-04-21T01:10:06.941Z,102115.53
2023-04-21T01:12:35.633Z,102112.03
2023-04-21T01:15:03.609Z,102112.06
2023-04-21T01:17:31.564Z,102112.91
2023-04-21T01:20:04.099Z,102110.28
2023-04-21T01:22:37.071Z,102116.47
2023-04-21T01:25:05.578Z,102112.06
2023-04-21T01:27:33.472Z,102113.81
2023-04-21T01:30:01.495Z,102119.97
2023-04-21T01:32:30.406Z,102107.75
2023-04-21T01:34:58.552Z,102106.84
2023-04-21T01:37:27.447Z,102109.50
2023-04-21T01:39:57.747Z,102109.44
2023-04-21T01:42:26.460Z,102112.06
2023-04-21T01:44:54.768Z,102103.34
2023-04-21T01:47:22.875Z,102104.25
2023-04-21T01:49:50.880Z,102095.47
2023-04-21T01:52:18.794Z,102096.34
2023-04-21T01:54:46.696Z,102095.47
2023-04-21T01:57:18.180Z,102093.75
2023-04-21T01:59:46.188Z,102086.69
2023-04-21T02:02:14.278Z,102092.84
2023-04-21T02:04:42.358Z,102091.09
2023-04-21T02:07:10.404Z,102091.09
2023-04-21T02:09:38.310Z,102089.31
2023-04-21T02:12:06.757Z,102082.31
2023-04-21T02:14:36.056Z,102080.56
2023-04-21T02:17:03.949Z,102075.34
2023-04-21T02:19:31.914Z,102083.22
2023-04-21T02:21:59.836Z,102082.34
2023-04-21T02:24:27.721Z,102083.22
2023-04-21T02:26:57.686Z,102071.84
2023-04-21T02:29:25.728Z,102077.09
2023-04-21T02:32:03.021Z,102076.22
2023-04-21T02:34:33.430Z,102071.81
2023-04-21T02:37:01.471Z,102064.81
2023-04-21T02:39:29.405Z,102075.34
2023-04-21T02:41:58.441Z,102078.88
2023-04-21T02:44:26.442Z,102077.97
2023-04-21T02:46:55.830Z,102078.88
2023-04-21T02:49:23.800Z,102069.25
2023-04-21T02:51:51.718Z,102071.00
2023-04-21T02:54:19.618Z,102073.63
2023-04-21T02:56:47.533Z,102077.16
2023-04-21T02:59:16.720Z,102076.28
2023-04-21T03:01:44.756Z,102078.03
2023-04-21T03:04:14.283Z,102073.63
2023-04-21T03:06:42.233Z,102071.00
2023-04-21T03:09:10.616Z,102068.38
2023-04-21T03:11:38.459Z,102057.91
2023-04-21T03:14:06.346Z,102064.88
2023-04-21T03:16:34.360Z,102064.91
2023-04-21T03:19:02.354Z,102062.25
2023-04-21T03:21:32.016Z,102063.13
2023-04-21T03:23:59.942Z,102067.53
2023-04-21T03:26:27.870Z,102064.91
2023-04-21T03:28:55.920Z,102066.66
2023-04-21T03:31:23.870Z,102057.94
2023-04-21T03:33:51.800Z,102060.56
2023-04-21T03:36:19.701Z,102053.59
2023-04-21T03:38:49.006Z,102060.56
2023-04-21T03:41:16.870Z,102058.81
2023-04-21T03:43:44.847Z,102058.81
2023-04-21T03:46:19.164Z,102066.66
2023-04-21T03:48:47.692Z,102063.19
2023-04-21T03:51:15.979Z,102066.72
2023-04-21T03:53:43.884Z,102064.09
2023-04-21T03:56:13.188Z,102068.47
2023-04-21T03:58:41.098Z,102060.59
2023-04-21T04:01:09.018Z,102057.94
2023-04-21T04:03:37.103Z,102058.81
2023-04-21T04:06:05.582Z,102057.03
2023-04-21T04:08:33.482Z,102054.44
2023-04-21T04:11:01.470Z,102050.06
2023-04-21T04:13:30.809Z,102054.47
2023-04-21T04:15:59.064Z,102062.34
2023-04-21T04:18:27.250Z,102056.22
2023-04-21T04:20:55.112Z,102049.22
2023-04-21T04:23:23.058Z,102044.81
2023-04-21T04:25:52.002Z,102047.44
2023-04-21T04:28:19.989Z,102046.59
2023-04-21T04:30:49.313Z,102049.22
2023-04-21T04:33:17.401Z,102048.31
2023-04-21T04:35:45.232Z,102041.28
2023-04-21T04:38:18.974Z,102043.91
2023-04-21T04:40:46.917Z,102039.53
2023-04-21T04:43:17.986Z,102043.91
2023-04-21T04:45:46.336Z,102045.63
2023-04-21T04:48:15.675Z,102045.63
2023-04-21T04:50:43.579Z,102048.25
2023-04-21T04:53:11.463Z,102049.13
2023-04-21T04:55:39.422Z,102054.31
2023-04-21T04:58:07.392Z,102056.13
2023-04-21T05:00:37.073Z,102053.50
2023-04-21T05:03:05.269Z,102056.13
2023-04-21T05:05:34.773Z,102053.50
2023-04-21T05:08:02.726Z,102057.03
2023-04-21T05:10:30.660Z,102059.69
2023-04-21T05:12:58.593Z,102067.63
2023-04-21T05:15:26.557Z,102052.84
2023-04-21T05:17:54.532Z,102054.59
2023-04-21T05:20:22.919Z,102055.50
2023-04-21T05:22:52.283Z,102052.03
2023-04-21T05:25:20.196Z,102050.31
2023-04-21T05:27:48.416Z,102052.91
2023-04-21T05:30:16.423Z,102051.97
2023-04-21T05:32:44.355Z,102057.22
2023-04-21T05:35:12.312Z,102052.78
2023-04-21T05:37:40.270Z,102054.50
2023-04-21T05:40:10.480Z,102063.22
2023-04-21T05:42:38.419Z,102059.72
2023-04-21T05:45:07.327Z,102055.31
2023-04-21T05:47:35.347Z,102050.88
2023-04-21T05:50:03.307Z,102051.75
2023-04-21T05:52:31.390Z,102058.75
2023-04-21T05:54:59.704Z,102052.66
2023-04-21T05:57:29.046Z,102052.63
2023-04-21T05:59:56.934Z,102057.03
2023-04-21T06:02:25.066Z,102057.88
2023-04-21T06:04:53.656Z,102050.84
2023-04-21T06:07:21.899Z,102056.03
2023-04-21T06:09:51.439Z,102056.03
2023-04-21T06:12:19.588Z,102065.66
2023-04-21T06:14:48.976Z,102056.03
2023-04-21T06:17:19.012Z,102054.28
2023-04-21T06:19:52.950Z,102061.28
2023-04-21T06:22:21.806Z,102055.13
2023-04-21T06:24:49.788Z,102052.44
2023-04-21T06:27:17.821Z,102052.50
2023-04-21T06:29:45.661Z,102054.25
2023-04-21T06:32:14.991Z,102054.25
2023-04-21T06:34:42.911Z,102048.97
2023-04-21T06:37:10.832Z,102044.63
2023-04-21T06:39:38.748Z,102045.50
2023-04-21T06:42:06.705Z,102036.75
2023-04-21T06:44:34.626Z,102033.25
2023-04-21T06:47:02.604Z,102034.97
2023-04-21T06:49:31.899Z,102040.25
2023-04-21T06:51:59.818Z,102031.47
2023-04-21T06:54:27.938Z,102031.50
2023-04-21T06:56:57.145Z,102035.84
2023-04-21T06:59:25.058Z,102032.38
2023-04-21T07:01:53.243Z,102037.63
2023-04-21T07:04:21.168Z,102031.47
2023-04-21T07:06:50.494Z,102034.09
2023-04-21T07:09:18.910Z,102030.59
2023-04-21T07:11:47.112Z,102032.31
2023-04-21T07:14:15.242Z,102032.31
2023-04-21T07:16:43.391Z,102027.03
2023-04-21T07:19:11.540Z,102028.75
2023-04-21T07:21:39.593Z,102020.00
2023-04-21T07:24:10.018Z,102014.72
2023-04-21T07:26:37.949Z,102013.00
2023-04-21T07:29:05.889Z,102012.09
2023-04-21T07:31:33.949Z,102006.84
2023-04-21T07:34:02.248Z,102006.84
2023-04-21T07:36:31.746Z,102006.84
2023-04-21T07:39:00.066Z,102007.69
2023-04-21T07:41:29.516Z,102001.53
2023-04-21T07:43:57.422Z,101999.81
2023-04-21T07:46:30.285Z,101997.19
2023-04-21T07:48:58.352Z,102005.91
2023-04-21T07:51:26.251Z,102002.38
2023-04-21T07:53:54.168Z,102001.53
2023-04-21T07:56:22.063Z,102003.28
2023-04-21T07:58:51.375Z,101992.75
2023-04-21T08:01:20.496Z,102001.53
2023-04-21T08:03:48.933Z,101998.81
2023-04-21T08:06:17.459Z,102001.44
2023-04-21T08:08:45.758Z,101997.00
2023-04-21T08:11:13.868Z,101999.63
2023-04-21T08:13:41.765Z,102006.63
2023-04-21T08:16:11.440Z,101999.63
2023-04-21T08:18:39.855Z,101998.72
2023-04-21T08:21:07.837Z,101998.72
2023-04-21T08:23:35.909Z,102000.50
2023-04-21T08:26:03.967Z,101993.44
2023-04-21T08:28:31.930Z,101989.91
2023-04-21T08:31:00.506Z,101996.06
2023-04-21T08:33:29.829Z,101988.97
2023-04-21T08:36:05.604Z,101982.81
2023-04-21T08:38:36.517Z,101985.44
2023-04-21T08:41:04.616Z,101983.66
2023-04-21T08:43:32.558Z,101977.53
2023-04-21T08:46:00.597Z,101979.25
2023-04-21T08:48:29.928Z,101985.38
2023-04-21T08:50:57.822Z,101974.78
2023-04-21T08:53:25.708Z,101969.59
2023-04-21T08:56:03.643Z,101973.94
2023-04-21T08:58:38.650Z,101967.75
2023-04-21T09:01:06.810Z,101969.38
2023-04-21T09:03:36.325Z,101966.72
2023-04-21T09:06:06.366Z,101962.31
2023-04-21T09:08:34.887Z,101962.28
2023-04-21T09:11:02.831Z,101965.81
2023-04-21T09:13:31.435Z,101959.66
2023-04-21T09:15:59.624Z,101965.84
2023-04-21T09:18:28.638Z,101963.22
2023-04-21T09:21:08.116Z,101958.84
2023-04-21T09:23:44.261Z,101958.84
2023-04-21T09:26:12.277Z,101965.81
2023-04-21T09:28:42.949Z,101962.25
2023-04-21T09:31:17.698Z,101960.50
2023-04-21T09:36:22.238Z,101962.25
2023-04-21T09:39:05.571Z,101956.88
2023-04-21T09:41:40.765Z,101948.06
2023-04-21T09:44:08.695Z,101948.03
2023-04-21T09:46:37.596Z,101939.25
2023-04-21T09:49:06.082Z,101948.72
2023-04-21T09:54:15.689Z,101939.81
2023-04-21T09:56:50.849Z,101945.00
2023-04-21T09:59:23.369Z,101931.84
2023-04-21T10:01:51.584Z,101934.53
2023-04-21T10:04:20.595Z,101927.56
2023-04-21T10:06:50.401Z,101931.91
2023-04-21T10:09:18.950Z,101929.25
2023-04-21T10:11:46.823Z,101925.75
2023-04-21T10:14:14.728Z,101921.38
2023-04-21T10:16:43.698Z,101923.13
2023-04-21T10:19:26.815Z,101925.75
2023-04-21T10:21:58.318Z,101915.19
2023-04-21T10:24:26.427Z,101913.38
2023-04-21T10:26:55.346Z,101910.72
2023-04-21T10:29:34.768Z,101905.47
2023-04-21T10:32:09.426Z,101900.16
2023-04-21T10:34:38.342Z,101897.50
2023-04-21T10:37:20.154Z,101899.25
2023-04-21T10:39:54.955Z,101888.66
2023-04-21T10:42:27.421Z,101891.25
2023-04-21T10:45:03.831Z,101884.16
2023-04-21T10:47:34.516Z,101889.38
2023-04-21T10:50:04.113Z,101883.22
2023-04-21T10:52:34.565Z,101884.97
2023-04-21T10:55:12.239Z,101877.88
2023-04-21T10:57:42.392Z,101874.31
2023-04-21T11:00:11.538Z,101868.16
2023-04-21T11:02:41.238Z,101864.59
2023-04-21T11:05:11.562Z,101869.78
2023-04-21T11:07:41.094Z,101861.84
2023-04-21T11:10:11.357Z,101860.06
2023-04-21T11:12:40.170Z,101853.84
2023-04-21T11:15:09.599Z,101852.06
2023-04-21T11:17:38.575Z,101853.75
2023-04-21T11:20:08.539Z,101848.44
2023-04-21T11:22:37.821Z,101843.09
2023-04-21T11:25:08.691Z,101843.06
2023-04-21T11:27:36.663Z,101849.19
2023-04-21T11:30:04.904Z,101834.16
2023-04-21T11:32:32.863Z,101827.97
2023-04-21T11:35:01.056Z,101831.41
2023-04-21T11:37:28.974Z,101819.06
2023-04-21T11:39:59.955Z,101811.09
2023-04-21T11:42:29.349Z,101812.81
2023-04-21T11:44:57.524Z,101806.56
2023-04-21T11:47:26.114Z,101804.78
2023-04-21T11:49:56.300Z,101800.34
2023-04-21T11:52:25.449Z,101800.25
2023-04-21T11:54:59.150Z,101795.78
2023-04-21T11:57:29.178Z,101794.75
2023-04-21T11:59:59.560Z,101791.16
2023-04-21T12:02:29.298Z,101790.25
2023-04-21T12:05:04.443Z,101791.13
2023-04-21T12:07:33.007Z,101787.50
2023-04-21T12:10:01.345Z,101770.69
2023-04-21T12:12:31.089Z,101779.41
2023-04-21T12:14:59.220Z,101774.97
2023-04-21T12:17:27.276Z,101776.66
2023-04-21T12:19:55.197Z,101765.16
2023-04-21T12:22:23.741Z,101763.38
2023-04-21T12:24:51.646Z,101755.38
2023-04-21T12:27:20.045Z,101764.16
2023-04-21T12:29:49.542Z,101754.47
2023-04-21T12:32:17.578Z,101758.88
2023-04-21T12:34:45.687Z,101748.34
2023-04-21T12:37:13.645Z,101755.34
2023-04-21T12:39:41.539Z,101750.88
2023-04-21T12:42:09.660Z,101746.38
2023-04-21T12:44:38.639Z,101741.91
2023-04-21T12:47:08.370Z,101744.47
2023-04-21T12:49:36.787Z,101739.06
2023-04-21T12:52:06.151Z,101739.91
2023-04-21T12:54:34.273Z,101734.53
2023-04-21T12:57:02.234Z,101733.56
2023-04-21T12:59:30.266Z,101731.69
2023-04-21T13:01:58.544Z,101726.34
2023-04-21T13:04:28.150Z,101733.28
2023-04-21T13:06:56.421Z,101727.94
2023-04-21T13:09:24.312Z,101725.16
2023-04-21T13:11:52.706Z,101722.44
2023-04-21T13:14:20.670Z,101708.25
2023-04-21T13:16:48.658Z,101697.63
2023-04-21T13:19:16.814Z,101701.94
2023-04-21T13:21:46.326Z,101697.44
2023-04-21T13:24:14.931Z,101693.81
2023-04-21T13:26:43.019Z,101698.09
2023-04-21T13:29:10.947Z,101690.91
2023-04-21T13:31:39.077Z,101691.66
2023-04-21T13:34:07.176Z,101686.31
2023-04-21T13:36:35.094Z,101693.25
2023-04-21T13:39:05.864Z,101685.19
2023-04-21T13:41:33.826Z,101682.47
2023-04-21T13:44:01.786Z,101678.03
2023-04-21T13:46:29.834Z,101669.16
2023-04-21T13:48:58.032Z,101662.91
2023-04-21T13:51:26.016Z,101666.31
2023-04-21T13:53:53.949Z,101663.59
2023-04-21T13:56:23.247Z,101662.63
2023-04-21T13:58:51.242Z,101650.22
2023-04-21T14:01:21.361Z,101641.31
2023-04-21T14:03:49.982Z,101645.72
2023-04-21T14:06:18.066Z,101639.44
2023-04-21T14:08:46.309Z,101641.03
2023-04-21T14:11:14.253Z,101638.31
2023-04-21T14:13:52.973Z,101630.25
2023-04-21T14:16:31.725Z,101623.00
2023-04-21T14:18:59.748Z,101620.22
2023-04-21T14:21:27.759Z,101619.16
2023-04-21T14:23:55.699Z,101619.03
2023-04-21T14:26:23.715Z,101615.25
2023-04-21T14:28:53.012Z,101607.00
2023-04-21T14:31:22.260Z,101607.44
2023-04-21T14:33:50.474Z,101607.63
2023-04-21T14:36:18.498Z,101600.66
2023-04-21T14:38:46.470Z,101602.38
2023-04-21T14:41:14.536Z,101598.63
2023-04-21T14:43:42.493Z,101589.53
2023-04-21T14:46:11.868Z,101583.78
2023-04-21T14:48:39.862Z,101583.34
2023-04-21T14:51:09.554Z,101575.97
2023-04-21T14:53:37.497Z,101578.66
2023-04-21T14:56:05.897Z,101578.06
2023-04-21T14:58:34.041Z,101571.41
2023-04-21T15:01:01.996Z,101562.13
2023-04-21T15:03:31.638Z,101558.50
2023-04-21T15:05:59.650Z,101556.41
2023-04-21T15:08:27.733Z,101555.25
2023-04-21T15:10:56.417Z,101555.91
2023-04-21T15:13:24.434Z,101546.94
2023-04-21T15:15:52.627Z,101547.72
2023-04-21T15:18:20.999Z,101544.03
2023-04-21T15:20:50.320Z,101536.81
2023-04-21T15:23:18.262Z,101533.06
2023-04-21T15:25:46.223Z,101531.16
2023-04-21T15:28:14.175Z,101531.06
2023-04-21T15:30:42.196Z,101533.72
2023-04-21T15:33:11.615Z,101540.84
2023-04-21T15:35:39.678Z,101533.94
2023-04-21T15:38:09.336Z,101532.34
2023-04-21T15:40:43.697Z,101532.91
2023-04-21T15:43:23.040Z,101527.81
2023-04-21T15:45:52.343Z,101524.66
2023-04-21T15:48:22.246Z,101521.97
2023-04-21T15:50:50.253Z,101521.50
2023-04-21T15:53:20.313Z,101526.34
2023-04-21T15:55:48.585Z,101526.63
2023-04-21T15:58:19.588Z,101518.19
2023-04-21T16:00:47.509Z,101506.34
2023-04-21T16:03:16.164Z,101511.38
2023-04-21T16:05:44.503Z,101499.66
2023-04-21T16:08:13.109Z,101493.13
2023-04-21T16:10:42.505Z,101504.13
2023-04-21T16:13:10.585Z,101499.91
2023-04-21T16:15:38.630Z,101498.31
2023-04-21T16:18:08.360Z,101489.56
2023-04-21T16:20:36.655Z,101493.25
2023-04-21T16:23:04.980Z,101486.38
2023-04-21T16:25:33.074Z,101485.72
2023-04-21T16:28:02.552Z,101484.97
2023-04-21T16:30:30.504Z,101482.44
2023-04-21T16:32:58.438Z,101476.47
2023-04-21T16:35:26.585Z,101473.97
2023-04-21T16:37:54.615Z,101481.13
2023-04-21T16:40:24.405Z,101475.91
2023-04-21T16:42:52.592Z,101476.81
2023-04-21T16:45:22.154Z,101460.16
2023-04-21T16:47:50.260Z,101466.41
2023-04-21T16:50:18.429Z,101474.44
2023-04-21T16:52:46.460Z,101465.72
2023-04-21T16:55:14.407Z,101462.28
2023-04-21T16:57:42.720Z,101460.47
2023-04-21T17:00:11.701Z,101459.69
2023-04-21T17:02:41.239Z,101457.94
2023-04-21T17:05:10.180Z,101448.25
2023-04-21T17:07:39.539Z,101453.56
2023-04-21T17:10:08.484Z,101451.78
2023-04-21T17:12:36.429Z,101450.00
2023-04-21T17:15:05.178Z,101451.75
2023-04-21T17:17:35.930Z,101449.03
2023-04-21T17:20:07.091Z,101447.19
2023-04-21T17:22:36.915Z,101449.78
2023-04-21T17:25:05.391Z,101443.59
2023-04-21T17:27:33.367Z,101449.72
2023-04-21T17:30:01.820Z,101451.50
2023-04-21T17:32:32.753Z,101440.09
2023-04-21T17:35:01.460Z,101446.38
2023-04-21T17:37:31.126Z,101445.50
2023-04-21T17:40:01.803Z,101451.78
2023-04-21T17:42:30.693Z,101440.31
2023-04-21T17:44:58.707Z,101453.63
2023-04-21T17:47:26.916Z,101445.81
2023-04-21T17:49:54.963Z,101443.28
2023-04-21T17:52:22.892Z,101443.53
2023-04-21T17:54:52.214Z,101443.69
2023-04-21T17:57:20.240Z,101435.13
2023-04-21T17:59:48.190Z,101437.97
2023-04-21T18:02:16.235Z,101438.06
2023-04-21T18:04:44.999Z,101451.41
2023-04-21T18:07:13.132Z,101446.25
2023-04-21T18:09:41.061Z,101442.97
2023-04-21T18:12:10.441Z,101439.56
2023-04-21T18:14:38.651Z,101447.69
2023-04-21T18:17:07.141Z,101438.19
2023-04-21T18:19:35.082Z,101448.91
2023-04-21T18:22:03.356Z,101445.56
2023-04-21T18:24:31.418Z,101452.91
2023-04-21T18:26:59.371Z,101450.59
2023-04-21T18:29:28.696Z,101456.22
2023-04-21T18:31:56.758Z,101455.69
2023-04-21T18:34:24.718Z,101463.91
2023-04-21T18:36:52.648Z,101461.53
2023-04-21T18:39:20.605Z,101457.47
2023-04-21T18:41:49.228Z,101452.50
2023-04-21T18:44:17.215Z,101452.69
2023-04-21T18:46:46.543Z,101450.28
2023-04-21T18:49:14.516Z,101447.81
2023-04-21T18:51:42.473Z,101443.63
2023-04-21T18:54:10.878Z,101443.00
2023-04-21T18:56:38.881Z,101440.53
2023-04-21T18:59:07.118Z,101446.88
2023-04-21T19:01:35.099Z,101450.56
2023-04-21T19:04:04.622Z,101453.31
2023-04-21T19:06:32.695Z,101458.72
2023-04-21T19:09:00.779Z,101451.84
2023-04-21T19:11:29.453Z,101451.91
2023-04-21T19:13:57.464Z,101460.88
2023-04-21T19:16:25.456Z,101455.66
2023-04-21T19:18:53.369Z,101454.03
2023-04-21T19:21:22.718Z,101452.38
2023-04-21T19:23:50.824Z,101457.75
2023-04-21T19:26:18.786Z,101459.56
2023-04-21T19:28:46.841Z,101458.75
2023-04-21T19:31:15.609Z,101450.06
2023-04-21T19:33:43.566Z,101446.63
2023-04-21T19:36:11.959Z,101444.94
2023-04-21T19:38:41.267Z,101451.16
2023-04-21T19:41:09.293Z,101446.81
2023-04-21T19:43:37.264Z,101443.41
2023-04-21T19:46:05.587Z,101440.81
2023-04-21T19:48:33.599Z,101445.28
2023-04-21T19:51:02.046Z,101449.72
2023-04-21T19:53:29.968Z,101444.50
2023-04-21T19:55:59.302Z,101443.72
2023-04-21T19:58:39.348Z,101445.53
2023-04-21T20:01:08.949Z,101446.50
2023-04-21T20:03:37.280Z,101446.53
2023-04-21T20:06:05.921Z,101449.25
2023-04-21T20:08:33.874Z,101444.94
2023-04-21T20:11:03.238Z,101441.47
2023-04-21T20:13:31.127Z,101440.63
2023-04-21T20:15:59.337Z,101437.16
2023-04-21T20:18:27.468Z,101440.72
2023-04-21T20:20:55.618Z,101439.03
2023-04-21T20:23:23.601Z,101435.53
2023-04-21T20:25:51.732Z,101434.72
2023-04-21T20:28:21.266Z,101440.00
2023-04-21T20:30:49.205Z,101437.44
2023-04-21T20:33:18.032Z,101433.97
2023-04-21T20:35:46.045Z,101432.25
2023-04-21T20:38:14.319Z,101429.69
2023-04-21T20:40:42.263Z,101435.00
2023-04-21T20:43:10.376Z,101432.38
2023-04-21T20:45:41.358Z,101431.56
2023-04-21T20:48:09.381Z,101434.22
2023-04-21T20:50:37.434Z,101435.22
2023-04-21T20:53:07.398Z,101437.03
2023-04-21T20:55:35.371Z,101438.81
2023-04-21T20:58:03.413Z,101439.75
2023-04-21T21:00:32.867Z,101438.88
2023-04-21T21:03:02.425Z,101438.00
2023-04-21T21:05:33.397Z,101431.06
2023-04-21T21:08:01.437Z,101432.81
2023-04-21T21:10:29.391Z,101430.22
2023-04-21T21:12:58.131Z,101435.50
2023-04-21T21:15:26.160Z,101432.03
2023-04-21T21:17:54.119Z,101430.25
2023-04-21T21:20:23.612Z,101429.47
2023-04-21T21:22:51.560Z,101429.50
2023-04-21T21:25:19.592Z,101430.38
2023-04-21T21:27:47.661Z,101431.31
2023-04-21T21:30:15.971Z,101430.47
2023-04-21T21:32:44.061Z,101424.34
2023-04-21T21:35:12.130Z,101422.59
2023-04-21T21:37:41.472Z,101425.28
2023-04-21T21:40:10.873Z,101419.19
2023-04-21T21:42:38.821Z,101413.97
2023-04-21T21:45:07.887Z,101422.78
2023-04-21T21:47:39.417Z,101425.47
2023-04-21T21:50:11.233Z,101412.38
2023-04-21T21:52:39.236Z,101416.78
2023-04-21T21:55:09.784Z,101414.19
2023-04-21T21:57:37.934Z,101415.06
2023-04-21T22:00:08.221Z,101409.84
2023-04-21T22:02:36.515Z,101410.72
2023-04-21T22:05:05.114Z,101414.25
2023-04-21T22:07:33.057Z,101408.16
2023-04-21T22:10:01.229Z,101419.63
2023-04-21T22:12:32.065Z,101409.09
2023-04-21T22:15:00.046Z,101407.38
2023-04-21T22:17:29.578Z,101409.19
2023-04-21T22:19:57.784Z,101408.34
2023-04-21T22:22:25.762Z,101408.38
2023-04-21T22:24:53.684Z,101402.22
2023-04-21T22:27:21.640Z,101404.88
2023-04-21T22:29:51.434Z,101400.53
2023-04-21T22:32:19.367Z,101397.00
2023-04-21T22:34:47.344Z,101400.56
2023-04-21T22:37:15.839Z,101402.38
2023-04-21T22:39:43.788Z,101403.25
2023-04-21T22:42:11.695Z,101400.72
2023-04-21T22:44:39.655Z,101392.84
2023-04-21T22:47:10.639Z,101391.97
2023-04-21T22:49:39.158Z,101394.59
2023-04-21T22:52:07.504Z,101391.97
2023-04-21T22:54:35.438Z,101388.53
2023-04-21T22:57:03.570Z,101394.66
2023-04-21T22:59:31.555Z,101386.81
2023-04-21T23:01:59.672Z,101377.16
2023-04-21T23:04:29.121Z,101375.41
2023-04-21T23:06:57.049Z,101368.44
2023-04-21T23:09:25.059Z,101364.97
2023-04-21T23:11:52.988Z,101365.91
2023-04-21T23:14:20.921Z,101362.44
2023-04-21T23:16:48.921Z,101367.72
2023-04-21T23:19:16.888Z,101365.09
2023-04-21T23:21:46.560Z,101359.88
2023-04-21T23:24:14.508Z,101361.63
2023-04-21T23:26:42.448Z,101361.63
2023-04-21T23:29:10.548Z,101365.16
2023-04-21T23:31:38.910Z,101352.91
2023-04-21T23:34:06.911Z,101359.06
2023-04-21T23:36:34.853Z,101358.19
2023-04-21T23:39:04.381Z,101349.47
2023-04-21T23:41:32.276Z,101354.81
2023-04-21T23:44:00.224Z,101349.53
2023-04-21T23:46:28.292Z,101349.53
2023-04-21T23:48:56.299Z,101339.94
2023-04-21T23:51:24.287Z,101342.53
2023-04-21T23:53:52.245Z,101339.91
2023-04-21T23:56:21.811Z,101336.44
2023-04-21T23:58:49.796Z,101333.00
